createdAt,value
2016-04-28T00:00:41.356Z,0
2016-04-28T00:01:41.374Z,0
2016-04-28T00:02:41.391Z,0
2016-04-28T00:03:41.458Z,0
2016-04-28T00:04:41.445Z,0
2016-04-28T00:05:41.447Z,0
2016-04-28T00:06:41.512Z,0
2016-04-28T00:07:41.500Z,0
2016-04-28T00:08:41.518Z,0
2016-04-28T00:09:41.535Z,0
2016-04-28T00:10:44.007Z,0
2016-04-28T00:11:43.948Z,0
2016-04-28T00:12:41.607Z,0
2016-04-28T00:13:41.641Z,0
2016-04-28T00:14:41.643Z,0
2016-04-28T00:15:41.676Z,0
2016-04-28T00:16:41.696Z,0
2016-04-28T00:17:41.729Z,0
2016-04-28T00:18:41.748Z,0
2016-04-28T00:19:41.750Z,0
2016-04-28T00:20:41.800Z,0
2016-04-28T00:21:41.803Z,0
2016-04-28T00:22:41.837Z,0
2016-04-28T00:23:41.839Z,0
2016-04-28T00:24:41.889Z,0
2016-04-28T00:25:42.783Z,0
2016-04-28T00:26:43.161Z,0
2016-04-28T00:27:41.913Z,0
2016-04-28T00:28:41.977Z,0
2016-04-28T00:29:41.965Z,0
2016-04-28T00:30:41.999Z,0
2016-04-28T00:31:42.033Z,0
2016-04-28T00:32:41.301Z,0
2016-04-28T00:33:42.069Z,0
2016-04-28T00:34:42.103Z,0
2016-04-28T00:35:42.105Z,0
2016-04-28T00:36:42.124Z,0
2016-04-28T00:37:42.158Z,0
2016-04-28T00:38:42.193Z,0
2016-04-28T00:39:42.179Z,0
2016-04-28T00:40:42.463Z,0
2016-04-28T00:41:42.293Z,0
2016-04-28T00:42:42.266Z,0
2016-04-28T00:43:42.284Z,0
2016-04-28T00:44:42.334Z,0
2016-04-28T00:45:42.320Z,0
2016-04-28T00:46:42.370Z,0
2016-04-28T00:47:42.373Z,0
2016-04-28T00:48:42.390Z,0
2016-04-28T00:49:42.409Z,0
2016-04-28T00:50:42.443Z,0
2016-04-28T00:51:42.462Z,0
2016-04-28T00:52:42.495Z,0
2016-04-28T00:53:41.764Z,0
2016-04-28T00:54:42.517Z,0
2016-04-28T00:55:42.550Z,0
2016-04-28T00:56:42.959Z,0
2016-04-28T00:57:42.619Z,0
2016-04-28T00:58:42.605Z,0
2016-04-28T00:59:42.624Z,0
2016-04-28T01:00:42.642Z,0
2016-04-28T01:01:42.675Z,0
2016-04-28T01:02:42.710Z,0
2016-04-28T01:03:42.713Z,0
2016-04-28T01:04:42.731Z,0
2016-04-28T01:05:42.749Z,0
2016-04-28T01:06:42.768Z,0
2016-04-28T01:07:42.801Z,0
2016-04-28T01:08:42.851Z,0
2016-04-28T01:09:42.854Z,0
2016-04-28T01:10:44.043Z,0
2016-04-28T01:11:42.468Z,0
2016-04-28T01:12:42.909Z,0
2016-04-28T01:13:42.927Z,0
2016-04-28T01:14:42.960Z,0
2016-04-28T01:15:42.979Z,0
2016-04-28T01:16:42.998Z,0
2016-04-28T01:17:43.016Z,0
2016-04-28T01:18:43.050Z,0
2016-04-28T01:19:43.068Z,0
2016-04-28T01:20:43.101Z,0
2016-04-28T01:21:43.104Z,0
2016-04-28T01:22:43.123Z,0
2016-04-28T01:23:43.141Z,0
2016-04-28T01:24:43.175Z,0
2016-04-28T01:25:43.178Z,0
2016-04-28T01:26:43.556Z,0
2016-04-28T01:27:43.230Z,0
2016-04-28T01:28:43.264Z,0
2016-04-28T01:29:43.267Z,0
2016-04-28T01:30:43.301Z,0
2016-04-28T01:31:43.303Z,0
2016-04-28T01:32:43.337Z,0
2016-04-28T01:33:43.371Z,0
2016-04-28T01:34:43.405Z,0
2016-04-28T01:35:43.408Z,0
2016-04-28T01:36:43.426Z,0
2016-04-28T01:37:43.445Z,0
2016-04-28T01:38:43.463Z,0
2016-04-28T01:39:43.497Z,0
2016-04-28T01:40:43.499Z,0
2016-04-28T01:41:43.533Z,0
2016-04-28T01:42:43.552Z,0
2016-04-28T01:43:43.571Z,0
2016-04-28T01:44:43.573Z,0
2016-04-28T01:45:43.622Z,0
2016-04-28T01:46:43.641Z,0
2016-04-28T01:47:43.690Z,0
2016-04-28T01:48:43.677Z,0
2016-04-28T01:49:43.726Z,0
2016-04-28T01:50:43.730Z,0
2016-04-28T01:51:43.764Z,0
2016-04-28T01:52:43.781Z,0
2016-04-28T01:53:43.770Z,0
2016-04-28T01:54:43.803Z,0
2016-04-28T01:55:43.931Z,0
2016-04-28T01:56:43.558Z,0
2016-04-28T01:57:43.889Z,0
2016-04-28T01:58:43.891Z,0
2016-04-28T01:59:43.911Z,0
2016-04-28T02:00:43.928Z,0
2016-04-28T02:01:43.961Z,0
2016-04-28T02:02:43.981Z,0
2016-04-28T02:03:44.030Z,0
2016-04-28T02:04:44.017Z,0
2016-04-28T02:05:44.051Z,0
2016-04-28T02:06:44.054Z,0
2016-04-28T02:07:44.088Z,0
2016-04-28T02:08:44.122Z,0
2016-04-28T02:09:44.140Z,0
2016-04-28T02:10:44.252Z,0
2016-04-28T02:11:44.005Z,0
2016-04-28T02:12:44.210Z,0
2016-04-28T02:13:44.229Z,0
2016-04-28T02:14:44.262Z,0
2016-04-28T02:15:44.282Z,0
2016-04-28T02:16:44.284Z,0
2016-04-28T02:17:44.318Z,0
2016-04-28T02:18:44.337Z,0
2016-04-28T02:19:44.229Z,0
2016-04-28T02:20:44.373Z,0
2016-04-28T02:21:44.390Z,0
2016-04-28T02:22:44.259Z,0
2016-04-28T02:23:44.418Z,0
2016-04-28T02:24:44.468Z,0
2016-04-28T02:25:44.517Z,0
2016-04-28T02:26:46.520Z,0
2016-04-28T02:27:44.506Z,0
2016-04-28T02:28:44.541Z,0
2016-04-28T02:29:44.559Z,0
2016-04-28T02:30:44.593Z,0
2016-04-28T02:31:44.595Z,0
2016-04-28T02:32:44.629Z,0
2016-04-28T02:33:44.648Z,0
2016-04-28T02:34:44.681Z,0
2016-04-28T02:35:44.701Z,0
2016-04-28T02:36:44.719Z,0
2016-04-28T02:37:44.737Z,0
2016-04-28T02:38:44.770Z,0
2016-04-28T02:39:44.788Z,0
2016-04-28T02:40:44.792Z,0
2016-04-28T02:41:45.623Z,0
2016-04-28T02:42:44.844Z,0
2016-04-28T02:43:44.846Z,0
2016-04-28T02:44:44.866Z,0
2016-04-28T02:45:44.899Z,0
2016-04-28T02:46:44.933Z,0
2016-04-28T02:47:44.951Z,0
2016-04-28T02:48:44.970Z,0
2016-04-28T02:49:44.988Z,0
2016-04-28T02:50:45.021Z,0
2016-04-28T02:51:45.024Z,0
2016-04-28T02:52:45.057Z,0
2016-04-28T02:53:45.061Z,0
2016-04-28T02:54:45.110Z,0
2016-04-28T02:55:45.113Z,0
2016-04-28T02:56:45.835Z,0
2016-04-28T02:57:45.165Z,0
2016-04-28T02:58:45.184Z,0
2016-04-28T02:59:45.186Z,0
2016-04-28T03:00:45.221Z,0
2016-04-28T03:01:45.239Z,0
2016-04-28T03:02:45.273Z,0
2016-04-28T03:03:45.275Z,0
2016-04-28T03:04:45.309Z,0
2016-04-28T03:05:45.328Z,0
2016-04-28T03:06:45.361Z,0
2016-04-28T03:07:45.364Z,0
2016-04-28T03:08:45.398Z,0
2016-04-28T03:09:45.417Z,0
2016-04-28T03:10:45.435Z,0
2016-04-28T03:11:47.000Z,0
2016-04-28T03:12:45.487Z,0
2016-04-28T03:13:45.489Z,0
2016-04-28T03:14:45.524Z,0
2016-04-28T03:15:45.527Z,0
2016-04-28T03:16:45.560Z,0
2016-04-28T03:17:45.579Z,0
2016-04-28T03:18:45.597Z,0
2016-04-28T03:19:45.615Z,0
2016-04-28T03:20:45.633Z,0
2016-04-28T03:21:45.668Z,0
2016-04-28T03:22:45.686Z,0
2016-04-28T03:23:45.688Z,0
2016-04-28T03:24:45.582Z,0
2016-04-28T03:25:45.741Z,0
2016-04-28T03:26:47.931Z,0
2016-04-28T03:27:45.824Z,0
2016-04-28T03:28:45.826Z,0
2016-04-28T03:29:45.815Z,0
2016-04-28T03:30:45.832Z,0
2016-04-28T03:31:45.882Z,0
2016-04-28T03:32:45.884Z,0
2016-04-28T03:33:45.918Z,0
2016-04-28T03:34:45.953Z,0
2016-04-28T03:35:45.955Z,0
2016-04-28T03:36:45.989Z,0
2016-04-28T03:37:45.992Z,0
2016-04-28T03:38:46.026Z,0
2016-04-28T03:39:46.028Z,0
2016-04-28T03:40:46.061Z,0
2016-04-28T03:41:46.065Z,0
2016-04-28T03:42:46.114Z,0
2016-04-28T03:43:46.149Z,0
2016-04-28T03:44:46.135Z,0
2016-04-28T03:45:46.170Z,0
2016-04-28T03:46:46.172Z,0
2016-04-28T03:47:46.205Z,0
2016-04-28T03:48:46.241Z,0
2016-04-28T03:49:46.258Z,0
2016-04-28T03:50:46.261Z,0
2016-04-28T03:51:46.295Z,0
2016-04-28T03:52:46.298Z,0
2016-04-28T03:53:46.332Z,0
2016-04-28T03:54:46.349Z,0
2016-04-28T03:55:46.384Z,0
2016-04-28T03:56:47.465Z,0
2016-04-28T03:57:46.421Z,0
2016-04-28T03:58:46.439Z,0
2016-04-28T03:59:46.457Z,0
2016-04-28T04:00:46.476Z,0
2016-04-28T04:01:46.494Z,0
2016-04-28T04:02:46.528Z,0
2016-04-28T04:03:46.546Z,0
2016-04-28T04:04:46.565Z,0
2016-04-28T04:05:46.598Z,0
2016-04-28T04:06:46.601Z,0
2016-04-28T04:07:46.650Z,0
2016-04-28T04:08:46.637Z,0
2016-04-28T04:09:46.672Z,0
2016-04-28T04:10:46.690Z,0
2016-04-28T04:11:49.349Z,0
2016-04-28T04:12:46.742Z,0
2016-04-28T04:13:46.745Z,0
2016-04-28T04:14:46.747Z,0
2016-04-28T04:15:46.797Z,0
2016-04-28T04:16:46.816Z,0
2016-04-28T04:17:46.834Z,0
2016-04-28T04:18:46.868Z,0
2016-04-28T04:19:47.010Z,0
2016-04-28T04:20:46.920Z,0
2016-04-28T04:21:46.907Z,5
2016-04-28T04:22:46.941Z,5
2016-04-28T04:23:46.959Z,5
2016-04-28T04:24:47.010Z,5
2016-04-28T04:25:46.996Z,5
2016-04-28T04:26:47.327Z,5
2016-04-28T04:27:47.048Z,5
2016-04-28T04:28:47.082Z,5
2016-04-28T04:29:47.085Z,5
2016-04-28T04:30:47.103Z,5
2016-04-28T04:31:47.121Z,5
2016-04-28T04:32:47.140Z,5
2016-04-28T04:33:47.173Z,10
2016-04-28T04:34:47.223Z,10
2016-04-28T04:35:47.194Z,10
2016-04-28T04:36:47.229Z,10
2016-04-28T04:37:47.278Z,10
2016-04-28T04:38:47.265Z,10
2016-04-28T04:39:47.284Z,10
2016-04-28T04:40:47.302Z,15
2016-04-28T04:41:47.055Z,15
2016-04-28T04:42:47.338Z,15
2016-04-28T04:43:47.388Z,15
2016-04-28T04:44:47.391Z,15
2016-04-28T04:45:47.409Z,15
2016-04-28T04:46:47.443Z,20
2016-04-28T04:47:47.461Z,20
2016-04-28T04:48:47.464Z,20
2016-04-28T04:49:47.497Z,20
2016-04-28T04:50:47.516Z,20
2016-04-28T04:51:47.550Z,20
2016-04-28T04:52:47.569Z,25
2016-04-28T04:53:47.587Z,25
2016-04-28T04:54:47.590Z,25
2016-04-28T04:55:47.624Z,25
2016-04-28T04:56:49.720Z,25
2016-04-28T04:57:47.676Z,25
2016-04-28T04:58:47.662Z,30
2016-04-28T04:59:47.713Z,30
2016-04-28T05:00:47.746Z,30
2016-04-28T05:01:47.749Z,30
2016-04-28T05:02:47.751Z,30
2016-04-28T05:03:47.785Z,35
2016-04-28T05:04:47.820Z,35
2016-04-28T05:05:47.853Z,35
2016-04-28T05:06:47.872Z,35
2016-04-28T05:07:47.875Z,35
2016-04-28T05:08:47.909Z,35
2016-04-28T05:09:47.895Z,40
2016-04-28T05:10:47.944Z,40
2016-04-28T05:11:48.197Z,40
2016-04-28T05:12:47.982Z,40
2016-04-28T05:13:47.984Z,40
2016-04-28T05:14:48.033Z,40
2016-04-28T05:15:48.068Z,45
2016-04-28T05:16:48.055Z,45
2016-04-28T05:17:48.089Z,45
2016-04-28T05:18:48.107Z,45
2016-04-28T05:19:48.142Z,45
2016-04-28T05:20:48.143Z,45
2016-04-28T05:21:48.178Z,45
2016-04-28T05:22:48.211Z,50
2016-04-28T05:23:48.213Z,50
2016-04-28T05:24:48.248Z,50
2016-04-28T05:25:48.252Z,50
2016-04-28T05:26:48.691Z,50
2016-04-28T05:27:48.303Z,55
2016-04-28T05:28:48.338Z,55
2016-04-28T05:29:48.387Z,55
2016-04-28T05:30:48.374Z,55
2016-04-28T05:31:48.376Z,60
2016-04-28T05:32:48.427Z,60
2016-04-28T05:33:48.428Z,60
2016-04-28T05:34:48.479Z,60
2016-04-28T05:35:48.496Z,65
2016-04-28T05:36:48.498Z,65
2016-04-28T05:37:48.533Z,70
2016-04-28T05:38:48.584Z,75
2016-04-28T05:39:48.586Z,75
2016-04-28T05:40:48.588Z,75
2016-04-28T05:41:50.887Z,75
2016-04-28T05:42:49.234Z,75
2016-04-28T05:43:48.675Z,80
2016-04-28T05:44:48.693Z,80
2016-04-28T05:45:48.711Z,80
2016-04-28T05:46:48.760Z,80
2016-04-28T05:47:48.748Z,80
2016-04-28T05:48:48.797Z,80
2016-04-28T05:49:48.800Z,85
2016-04-28T05:50:48.833Z,85
2016-04-28T05:51:48.853Z,90
2016-04-28T05:52:48.886Z,95
2016-04-28T05:53:48.905Z,105
2016-04-28T05:54:48.922Z,110
2016-04-28T05:55:48.972Z,110
2016-04-28T05:56:50.225Z,120
2016-04-28T05:57:48.993Z,120
2016-04-28T05:58:49.012Z,125
2016-04-28T05:59:49.061Z,135
2016-04-28T06:00:49.054Z,175
2016-04-28T06:01:49.160Z,220
2016-04-28T06:02:49.203Z,270
2016-04-28T06:03:49.278Z,305
2016-04-28T06:04:49.322Z,305
2016-04-28T06:05:49.407Z,305
2016-04-28T06:06:49.424Z,325
2016-04-28T06:07:49.474Z,320
2016-04-28T06:08:49.523Z,315
2016-04-28T06:09:49.539Z,320
2016-04-28T06:10:49.572Z,325
2016-04-28T06:11:50.172Z,275
2016-04-28T06:12:49.649Z,160
2016-04-28T06:13:49.687Z,120
2016-04-28T06:14:49.696Z,315
2016-04-28T06:15:49.765Z,315
2016-04-28T06:16:49.754Z,310
2016-04-28T06:17:49.789Z,305
2016-04-28T06:18:49.810Z,310
2016-04-28T06:19:49.846Z,315
2016-04-28T06:20:49.882Z,315
2016-04-28T06:21:49.901Z,305
2016-04-28T06:22:49.904Z,305
2016-04-28T06:23:49.954Z,245
2016-04-28T06:24:49.989Z,290
2016-04-28T06:25:50.009Z,305
2016-04-28T06:26:50.448Z,325
2016-04-28T06:27:50.374Z,330
2016-04-28T06:28:50.079Z,340
2016-04-28T06:29:50.115Z,345
2016-04-28T06:30:50.149Z,350
2016-04-28T06:31:50.151Z,345
2016-04-28T06:32:50.186Z,355
2016-04-28T06:33:50.219Z,350
2016-04-28T06:34:50.238Z,325
2016-04-28T06:35:50.319Z,355
2016-04-28T06:36:50.306Z,285
2016-04-28T06:37:50.339Z,230
2016-04-28T06:38:50.326Z,320
2016-04-28T06:39:50.392Z,310
2016-04-28T06:40:50.395Z,320
2016-04-28T06:41:52.350Z,130
2016-04-28T06:42:50.462Z,125
2016-04-28T06:43:50.481Z,130
2016-04-28T06:44:50.514Z,165
2016-04-28T06:45:50.533Z,235
2016-04-28T06:46:50.567Z,125
2016-04-28T06:47:50.586Z,130
2016-04-28T06:48:50.634Z,190
2016-04-28T06:49:50.637Z,235
2016-04-28T06:50:50.686Z,165
2016-04-28T06:51:50.690Z,325
2016-04-28T06:52:50.708Z,325
2016-04-28T06:53:50.602Z,335
2016-04-28T06:54:50.791Z,345
2016-04-28T06:55:50.810Z,345
2016-04-28T06:56:50.875Z,345
2016-04-28T06:57:51.205Z,340
2016-04-28T06:58:50.896Z,335
2016-04-28T06:59:50.913Z,325
2016-04-28T07:00:50.948Z,310
2016-04-28T07:01:50.952Z,185
2016-04-28T07:02:51.001Z,295
2016-04-28T07:03:51.034Z,315
2016-04-28T07:04:51.053Z,275
2016-04-28T07:05:51.071Z,310
2016-04-28T07:06:51.120Z,250
2016-04-28T07:07:51.123Z,300
2016-04-28T07:08:51.157Z,290
2016-04-28T07:09:51.190Z,320
2016-04-28T07:10:51.226Z,320
2016-04-28T07:11:54.900Z,335
2016-04-28T07:12:51.121Z,340
2016-04-28T07:13:51.281Z,325
2016-04-28T07:14:51.298Z,300
2016-04-28T07:15:51.348Z,200
2016-04-28T07:16:51.350Z,175
2016-04-28T07:17:51.431Z,305
2016-04-28T07:18:51.419Z,315
2016-04-28T07:19:51.483Z,325
2016-04-28T07:20:51.486Z,210
2016-04-28T07:21:51.505Z,175
2016-04-28T07:22:51.259Z,185
2016-04-28T07:23:51.574Z,190
2016-04-28T07:24:51.654Z,310
2016-04-28T07:25:51.626Z,270
2016-04-28T07:26:52.926Z,285
2016-04-28T07:27:52.459Z,310
2016-04-28T07:28:51.696Z,310
2016-04-28T07:29:51.730Z,275
2016-04-28T07:30:51.764Z,285
2016-04-28T07:31:51.814Z,260
2016-04-28T07:32:51.833Z,280
2016-04-28T07:33:51.882Z,280
2016-04-28T07:34:51.900Z,280
2016-04-28T07:35:51.919Z,280
2016-04-28T07:36:51.983Z,280
2016-04-28T07:37:51.955Z,270
2016-04-28T07:38:51.973Z,265
2016-04-28T07:39:52.054Z,260
2016-04-28T07:40:52.041Z,255
2016-04-28T07:41:56.903Z,260
2016-04-28T07:42:52.796Z,260
2016-04-28T07:43:52.127Z,260
2016-04-28T07:44:53.646Z,260
2016-04-28T07:45:52.196Z,255
2016-04-28T07:46:52.230Z,250
2016-04-28T07:47:52.232Z,245
2016-04-28T07:48:52.265Z,245
2016-04-28T07:49:52.315Z,240
2016-04-28T07:50:52.302Z,235
2016-04-28T07:51:52.383Z,235
2016-04-28T07:52:52.370Z,235
2016-04-28T07:53:52.420Z,230
2016-04-28T07:54:52.438Z,225
2016-04-28T07:55:52.348Z,225
2016-04-28T07:56:52.991Z,215
2016-04-28T07:57:55.431Z,190
2016-04-28T07:58:52.528Z,165
2016-04-28T07:59:52.608Z,160
2016-04-28T08:00:52.611Z,160
2016-04-28T08:01:52.629Z,160
2016-04-28T08:02:52.647Z,160
2016-04-28T08:03:52.541Z,160
2016-04-28T08:04:52.714Z,160
2016-04-28T08:05:52.624Z,165
2016-04-28T08:06:53.955Z,165
2016-04-28T08:07:52.829Z,165
2016-04-28T08:08:52.800Z,170
2016-04-28T08:09:52.849Z,170
2016-04-28T08:10:52.868Z,175
2016-04-28T08:11:52.776Z,175
2016-04-28T08:12:54.201Z,175
2016-04-28T08:13:55.484Z,175
2016-04-28T08:14:53.051Z,175
2016-04-28T08:15:53.022Z,170
2016-04-28T08:16:53.040Z,165
2016-04-28T08:17:53.075Z,165
2016-04-28T08:18:53.093Z,170
2016-04-28T08:19:53.111Z,160
2016-04-28T08:20:53.144Z,165
2016-04-28T08:21:53.194Z,160
2016-04-28T08:22:53.197Z,155
2016-04-28T08:23:53.247Z,155
2016-04-28T08:24:53.249Z,150
2016-04-28T08:25:53.299Z,130
2016-04-28T08:26:53.349Z,155
2016-04-28T08:27:54.102Z,155
2016-04-28T08:28:53.433Z,155
2016-04-28T08:29:53.403Z,155
2016-04-28T08:30:53.422Z,155
2016-04-28T08:31:53.455Z,155
2016-04-28T08:32:53.474Z,155
2016-04-28T08:33:53.539Z,155
2016-04-28T08:34:53.541Z,155
2016-04-28T08:35:53.560Z,155
2016-04-28T08:36:53.594Z,155
2016-04-28T08:37:53.612Z,155
2016-04-28T08:38:53.662Z,155
2016-04-28T08:39:53.679Z,155
2016-04-28T08:40:53.715Z,155
2016-04-28T08:41:53.749Z,160
2016-04-28T08:42:54.048Z,160
2016-04-28T08:43:53.816Z,155
2016-04-28T08:44:53.818Z,160
2016-04-28T08:45:53.853Z,165
2016-04-28T08:46:53.856Z,170
2016-04-28T08:47:53.905Z,180
2016-04-28T08:48:53.939Z,180
2016-04-28T08:49:53.973Z,180
2016-04-28T08:50:53.992Z,185
2016-04-28T08:51:54.025Z,185
2016-04-28T08:52:54.059Z,180
2016-04-28T08:53:54.077Z,180
2016-04-28T08:54:54.111Z,180
2016-04-28T08:55:54.114Z,175
2016-04-28T08:56:56.711Z,175
2016-04-28T08:57:54.197Z,175
2016-04-28T08:58:54.216Z,130
2016-04-28T08:59:54.218Z,125
2016-04-28T09:00:54.236Z,120
2016-04-28T09:01:54.286Z,115
2016-04-28T09:02:54.336Z,115
2016-04-28T09:03:54.339Z,120
2016-04-28T09:04:54.372Z,120
2016-04-28T09:05:56.079Z,115
2016-04-28T09:06:54.441Z,115
2016-04-28T09:07:54.443Z,115
2016-04-28T09:08:54.477Z,110
2016-04-28T09:09:54.495Z,110
2016-04-28T09:10:56.670Z,110
2016-04-28T09:11:57.704Z,110
2016-04-28T09:12:58.504Z,115
2016-04-28T09:13:54.616Z,115
2016-04-28T09:14:54.649Z,120
2016-04-28T09:15:54.668Z,120
2016-04-28T09:16:54.701Z,125
2016-04-28T09:17:54.579Z,130
2016-04-28T09:18:54.770Z,125
2016-04-28T09:19:54.787Z,120
2016-04-28T09:20:54.837Z,120
2016-04-28T09:21:55.668Z,115
2016-04-28T09:22:54.858Z,115
2016-04-28T09:23:54.892Z,120
2016-04-28T09:24:54.911Z,120
2016-04-28T09:25:54.945Z,125
2016-04-28T09:26:57.760Z,135
2016-04-28T09:27:54.997Z,135
2016-04-28T09:28:55.030Z,155
2016-04-28T09:29:55.064Z,155
2016-04-28T09:30:55.066Z,150
2016-04-28T09:31:54.804Z,150
2016-04-28T09:32:55.152Z,145
2016-04-28T09:33:55.185Z,130
2016-04-28T09:34:55.202Z,145
2016-04-28T09:35:55.221Z,140
2016-04-28T09:36:56.162Z,145
2016-04-28T09:37:55.258Z,140
2016-04-28T09:38:55.292Z,135
2016-04-28T09:39:55.310Z,130
2016-04-28T09:40:55.328Z,130
2016-04-28T09:41:59.628Z,125
2016-04-28T09:42:55.085Z,130
2016-04-28T09:43:55.431Z,125
2016-04-28T09:44:55.496Z,120
2016-04-28T09:45:55.482Z,115
2016-04-28T09:46:55.517Z,130
2016-04-28T09:47:55.534Z,130
2016-04-28T09:48:55.569Z,120
2016-04-28T09:49:55.587Z,115
2016-04-28T09:50:55.606Z,110
2016-04-28T09:51:55.655Z,110
2016-04-28T09:52:57.611Z,105
2016-04-28T09:53:55.676Z,100
2016-04-28T09:54:55.725Z,95
2016-04-28T09:55:55.775Z,90
2016-04-28T09:56:56.105Z,90
2016-04-28T09:57:57.343Z,90
2016-04-28T09:58:55.674Z,90
2016-04-28T09:59:55.833Z,95
2016-04-28T10:00:55.945Z,105
2016-04-28T10:01:55.900Z,115
2016-04-28T10:02:55.669Z,125
2016-04-28T10:03:55.953Z,140
2016-04-28T10:04:56.002Z,150
2016-04-28T10:05:56.005Z,145
2016-04-28T10:06:56.055Z,145
2016-04-28T10:07:58.152Z,150
2016-04-28T10:08:56.295Z,150
2016-04-28T10:09:56.110Z,150
2016-04-28T10:10:56.191Z,145
2016-04-28T10:11:56.038Z,145
2016-04-28T10:12:56.601Z,140
2016-04-28T10:13:56.245Z,140
2016-04-28T10:14:56.265Z,140
2016-04-28T10:15:56.610Z,140
2016-04-28T10:16:56.300Z,150
2016-04-28T10:17:57.350Z,155
2016-04-28T10:18:56.353Z,155
2016-04-28T10:19:56.730Z,155
2016-04-28T10:20:56.406Z,155
2016-04-28T10:21:56.486Z,155
2016-04-28T10:22:59.504Z,140
2016-04-28T10:23:56.491Z,140
2016-04-28T10:24:56.573Z,145
2016-04-28T10:25:56.528Z,140
2016-04-28T10:26:57.734Z,140
2016-04-28T10:27:56.845Z,135
2016-04-28T10:28:56.645Z,130
2016-04-28T10:29:56.664Z,125
2016-04-28T10:30:56.682Z,125
2016-04-28T10:31:56.716Z,120
2016-04-28T10:32:56.734Z,120
2016-04-28T10:33:56.799Z,115
2016-04-28T10:34:56.771Z,120
2016-04-28T10:35:56.821Z,120
2016-04-28T10:36:56.839Z,125
2016-04-28T10:37:56.873Z,125
2016-04-28T10:38:56.890Z,125
2016-04-28T10:39:56.924Z,120
2016-04-28T10:40:56.943Z,120
2016-04-28T10:41:56.837Z,120
2016-04-28T10:42:58.276Z,120
2016-04-28T10:43:57.029Z,105
2016-04-28T10:44:57.048Z,105
2016-04-28T10:45:57.082Z,105
2016-04-28T10:46:57.116Z,110
2016-04-28T10:47:57.134Z,130
2016-04-28T10:48:57.168Z,130
2016-04-28T10:49:57.202Z,130
2016-04-28T10:50:57.204Z,130
2016-04-28T10:51:57.254Z,130
2016-04-28T10:52:57.350Z,130
2016-04-28T10:53:57.306Z,130
2016-04-28T10:54:57.309Z,125
2016-04-28T10:55:57.656Z,125
2016-04-28T10:56:57.845Z,125
2016-04-28T10:57:58.286Z,120
2016-04-28T10:58:57.445Z,125
2016-04-28T10:59:57.463Z,125
2016-04-28T11:00:57.466Z,125
2016-04-28T11:01:57.500Z,130
2016-04-28T11:02:57.550Z,135
2016-04-28T11:03:57.567Z,145
2016-04-28T11:04:57.602Z,150
2016-04-28T11:05:57.604Z,155
2016-04-28T11:06:57.654Z,155
2016-04-28T11:07:57.657Z,160
2016-04-28T11:08:57.690Z,160
2016-04-28T11:09:57.708Z,165
2016-04-28T11:10:57.774Z,165
2016-04-28T11:11:57.527Z,160
2016-04-28T11:12:59.670Z,160
2016-04-28T11:13:57.829Z,150
2016-04-28T11:14:57.847Z,155
2016-04-28T11:15:57.865Z,135
2016-04-28T11:16:57.915Z,130
2016-04-28T11:17:57.918Z,125
2016-04-28T11:18:57.998Z,120
2016-04-28T11:19:58.017Z,125
2016-04-28T11:20:58.028Z,140
2016-04-28T11:21:58.048Z,130
2016-04-28T11:22:58.082Z,145
2016-04-28T11:23:58.100Z,155
2016-04-28T11:24:58.478Z,155
2016-04-28T11:25:58.136Z,155
2016-04-28T11:26:58.702Z,140
2016-04-28T11:27:58.283Z,135
2016-04-28T11:28:58.238Z,140
2016-04-28T11:29:58.272Z,150
2016-04-28T11:30:58.290Z,175
2016-04-28T11:31:58.309Z,170
2016-04-28T11:32:58.359Z,165
2016-04-28T11:33:58.361Z,175
2016-04-28T11:34:58.410Z,170
2016-04-28T11:35:58.429Z,160
2016-04-28T11:36:58.462Z,155
2016-04-28T11:37:58.449Z,150
2016-04-28T11:38:58.515Z,150
2016-04-28T11:39:58.518Z,140
2016-04-28T11:40:58.537Z,135
2016-04-28T11:41:59.195Z,115
2016-04-28T11:43:01.167Z,130
2016-04-28T11:43:58.670Z,130
2016-04-28T11:44:58.673Z,130
2016-04-28T11:45:58.690Z,135
2016-04-28T11:46:59.006Z,140
2016-04-28T11:47:58.727Z,115
2016-04-28T11:48:58.776Z,110
2016-04-28T11:49:58.779Z,130
2016-04-28T11:50:59.079Z,140
2016-04-28T11:51:58.848Z,150
2016-04-28T11:52:58.881Z,140
2016-04-28T11:53:58.883Z,130
2016-04-28T11:54:58.933Z,125
2016-04-28T11:55:58.936Z,125
2016-04-28T11:56:59.814Z,115
2016-04-28T11:58:01.504Z,120
2016-04-28T11:58:59.053Z,110
2016-04-28T11:59:59.072Z,115
2016-04-28T12:00:59.091Z,100
2016-04-28T12:01:59.108Z,105
2016-04-28T12:02:58.392Z,115
2016-04-28T12:03:59.176Z,140
2016-04-28T12:04:59.179Z,155
2016-04-28T12:05:59.229Z,140
2016-04-28T12:06:59.263Z,170
2016-04-28T12:07:59.249Z,170
2016-04-28T12:08:59.315Z,165
2016-04-28T12:09:59.317Z,160
2016-04-28T12:10:59.367Z,150
2016-04-28T12:11:59.385Z,135
2016-04-28T12:13:01.123Z,130
2016-04-28T12:13:59.421Z,125
2016-04-28T12:14:59.471Z,125
2016-04-28T12:15:59.506Z,120
2016-04-28T12:16:59.509Z,125
2016-04-28T12:17:59.557Z,95
2016-04-28T12:18:59.560Z,110
2016-04-28T12:19:59.610Z,100
2016-04-28T12:20:59.645Z,115
2016-04-28T12:21:59.662Z,115
2016-04-28T12:22:59.665Z,110
2016-04-28T12:23:59.730Z,110
2016-04-28T12:24:59.717Z,110
2016-04-28T12:25:59.750Z,120
2016-04-28T12:27:00.160Z,125
2016-04-28T12:27:59.866Z,125
2016-04-28T12:28:59.822Z,115
2016-04-28T12:29:59.872Z,115
2016-04-28T12:30:59.874Z,100
2016-04-28T12:31:59.908Z,110
2016-04-28T12:32:59.958Z,120
2016-04-28T12:33:59.961Z,125
2016-04-28T12:35:00.071Z,125
2016-04-28T12:36:00.027Z,130
2016-04-28T12:37:00.062Z,130
2016-04-28T12:38:00.080Z,125
2016-04-28T12:39:00.099Z,120
2016-04-28T12:40:00.133Z,115
2016-04-28T12:41:00.135Z,115
2016-04-28T12:42:00.185Z,120
2016-04-28T12:43:00.110Z,120
2016-04-28T12:44:00.238Z,125
2016-04-28T12:45:00.145Z,150
2016-04-28T12:46:00.304Z,150
2016-04-28T12:47:00.323Z,160
2016-04-28T12:48:00.357Z,145
2016-04-28T12:49:00.359Z,140
2016-04-28T12:50:00.425Z,150
2016-04-28T12:51:00.584Z,150
2016-04-28T12:52:00.446Z,135
2016-04-28T12:53:00.464Z,135
2016-04-28T12:54:00.483Z,135
2016-04-28T12:55:00.532Z,135
2016-04-28T12:56:00.534Z,140
2016-04-28T12:57:00.584Z,145
2016-04-28T12:58:01.524Z,145
2016-04-28T12:59:00.636Z,150
2016-04-28T13:00:00.686Z,145
2016-04-28T13:01:00.705Z,145
2016-04-28T13:02:00.723Z,145
2016-04-28T13:03:00.725Z,155
2016-04-28T13:04:00.775Z,155
2016-04-28T13:05:00.794Z,165
2016-04-28T13:06:00.843Z,170
2016-04-28T13:07:00.861Z,170
2016-04-28T13:08:00.880Z,165
2016-04-28T13:09:00.899Z,155
2016-04-28T13:10:00.916Z,140
2016-04-28T13:11:00.966Z,135
2016-04-28T13:12:00.985Z,130
2016-04-28T13:13:01.127Z,120
2016-04-28T13:14:01.130Z,115
2016-04-28T13:15:01.085Z,110
2016-04-28T13:16:01.088Z,110
2016-04-28T13:17:01.107Z,105
2016-04-28T13:18:01.157Z,105
2016-04-28T13:19:01.190Z,100
2016-04-28T13:20:01.193Z,100
2016-04-28T13:21:01.226Z,100
2016-04-28T13:22:01.340Z,95
2016-04-28T13:23:01.123Z,95
2016-04-28T13:24:01.298Z,85
2016-04-28T13:25:01.347Z,95
2016-04-28T13:26:01.334Z,110
2016-04-28T13:27:01.415Z,100
2016-04-28T13:28:01.339Z,120
2016-04-28T13:29:01.453Z,110
2016-04-28T13:30:01.455Z,90
2016-04-28T13:31:01.504Z,80
2016-04-28T13:32:01.538Z,75
2016-04-28T13:33:01.619Z,70
2016-04-28T13:34:01.777Z,65
2016-04-28T13:35:01.609Z,60
2016-04-28T13:36:01.627Z,55
2016-04-28T13:37:01.645Z,65
2016-04-28T13:38:01.710Z,75
2016-04-28T13:39:01.697Z,90
2016-04-28T13:40:01.732Z,100
2016-04-28T13:41:01.750Z,105
2016-04-28T13:42:01.799Z,100
2016-04-28T13:43:02.427Z,105
2016-04-28T13:44:01.929Z,110
2016-04-28T13:45:01.854Z,110
2016-04-28T13:46:01.888Z,145
2016-04-28T13:47:01.922Z,145
2016-04-28T13:48:01.971Z,165
2016-04-28T13:49:02.006Z,155
2016-04-28T13:50:01.992Z,150
2016-04-28T13:51:02.057Z,150
2016-04-28T13:52:02.154Z,145
2016-04-28T13:53:02.109Z,125
2016-04-28T13:54:02.098Z,115
2016-04-28T13:55:02.115Z,115
2016-04-28T13:56:02.165Z,125
2016-04-28T13:57:02.183Z,130
2016-04-28T13:58:04.452Z,130
2016-04-28T13:59:02.298Z,125
2016-04-28T14:00:02.582Z,125
2016-04-28T14:01:02.367Z,125
2016-04-28T14:02:02.321Z,125
2016-04-28T14:03:02.339Z,120
2016-04-28T14:04:02.592Z,120
2016-04-28T14:05:02.439Z,135
2016-04-28T14:06:02.473Z,130
2016-04-28T14:07:02.757Z,115
2016-04-28T14:08:02.478Z,110
2016-04-28T14:09:02.560Z,100